• Join FlightAware (Why Join?)
  • Login
  • US Flag 
12:27PM EDT


 

Airport Tracker/Info


-or-


 

Live Flight TrackerFlight Track Log ✈ N487PG ✈ 10-May-2012 ✈ KEHF - KTOA

Flight Track Log - Related Links

Times and Time Zones

All times are in EDT time to prevent confusion due to time zone crossing. See the N487PG flight status page for this flight to view local times or setup timezone preferences in your user account.

Time Position Orientation Groundspeed Altitude Reporting Facility
EDT Latitude Longitude Course Direction KTS MPH feet Rate Location/Type
07:49PM -19.8956 -159.8023 35° Northeast  Level FlightAware Approximate
07:50PM -19.8648 -159.7778 35° Northeast  Level Estimated
07:51PM 35.2268 -118.9198 284° West  Level FlightAware Approximate
07:52PM 35.1910 -118.9024 325° Northwest  Level FlightAware Approximate
07:52PM 35.2300 -118.9361 151° Southeast 160 184 8,900  Level Los Angeles Center
07:57PM 35.0492 -118.8158 155° Southeast 154 177 8,900  Level Los Angeles Center
07:58PM 35.0122 -118.7944 155° Southeast 154 177 8,900  Level Los Angeles Center
07:59PM 34.9750 -118.7728 147° Southeast 154 177 8,900  Level Los Angeles Center
08:00PM 34.9422 -118.7464 152° Southeast 154 177 8,900  Level Los Angeles Center
08:01PM 34.9053 -118.7225 156° South 149 171 8,900  Level Los Angeles Center
08:02PM 34.8700 -118.7036 152° Southeast 149 171 8,900  Level Los Angeles Center
08:03PM 34.8331 -118.6797 157° South 154 177 8,900  Level Los Angeles Center
08:04PM 34.7958 -118.6608 149° Southeast 154 177 8,900  Level Los Angeles Center
08:05PM 34.7631 -118.6372 155° Southeast 154 177 8,900  Level Los Angeles Center
08:06PM 34.7258 -118.6158 148° Southeast 154 177 8,900  Level Los Angeles Center
08:07PM 34.6908 -118.5894 153° Southeast 154 177 8,900  Level Los Angeles Center
08:08PM 34.6517 -118.5656 155° Southeast 154 177 8,900  Level Los Angeles Center
08:09PM 34.6144 -118.5442 155° Southeast 154 177 8,900  Level Los Angeles Center
08:10PM 34.5775 -118.5231 154° Southeast 154 177 8,900  Level Los Angeles Center
08:11PM 34.5422 -118.5019 152° Southeast 154 177 8,900  Level Los Angeles Center
08:12PM 34.5053 -118.4781 154° Southeast 154 177 8,900  Level Los Angeles Center
08:13PM 34.4661 -118.4544 155° Southeast 154 177 8,900  Level Los Angeles Center
08:14PM 34.4289 -118.4331 155° Southeast 154 177 8,900  Level Los Angeles Center
08:15PM 34.3958 -118.4147 157° South 154 177 8,900  Level Los Angeles Center
08:16PM 34.3667 -118.4000 140° Southeast 148 170 8,900  Level Southern California TRACON
08:17PM 34.3333 -118.3667 158° South 146 168 8,900  Level Southern California TRACON
08:18PM 34.3000 -118.3500 165° South 147 169 8,900  Level Southern California TRACON
08:19PM 34.2500 -118.3333 158° South 149 171 8,900  Level Southern California TRACON
08:20PM 34.2167 -118.3167 140° Southeast 148 170 8,900 -60 Level Southern California TRACON
08:21PM 34.1833 -118.2833 158° South 149 171 8,800 -60 Descending Southern California TRACON
08:22PM 34.1500 -118.2667 151° Southeast 150 173 8,800  Level Southern California TRACON
08:23PM 34.1000 -118.2333 158° South 149 171 8,900  Climbing Southern California TRACON
08:24PM 34.0667 -118.2167 157° South 146 168 8,900  Level Southern California TRACON
08:25PM 34.0333 -118.2000 180° South 144 166 9,000  Climbing Southern California TRACON
08:26PM 34.0000 -118.2000 165° South 142 163 8,900  Descending Southern California TRACON
08:27PM 33.9500 -118.1833 180° South 145 167 9,000  Climbing Southern California TRACON
08:28PM 33.9167 -118.1833 180° South 143 165 8,900 -420 Descending Southern California TRACON
08:29PM 33.8833 -118.1833 195° South 141 162 8,300 -660 Descending Southern California TRACON
08:30PM 33.8333 -118.2000 180° South 137 158 7,600 -720 Descending Southern California TRACON
08:31PM 33.8000 -118.2000 180° South 139 160 6,900 -780 Descending Southern California TRACON
08:32PM 33.7667 -118.2000 140° Southeast 141 162 6,100 -900 Descending Southern California TRACON
08:33PM 33.7333 -118.1667 157° South 152 175 5,200 -900 Descending Southern California TRACON
08:34PM 33.7000 -118.1500 203° Southwest 145 167 4,400 -900 Descending Southern California TRACON
08:35PM 33.6667 -118.1667 320° Northwest 140 161 3,500 -840 Descending Southern California TRACON
08:36PM 33.7000 -118.2000 320° Northwest 117 135 2,800 -780 Descending Southern California TRACON
08:37PM 33.7167 -118.2167 301° West 119 137 2,100 -540 Descending Southern California TRACON
08:38PM 33.7333 -118.2500 320° Northwest 105 121 1,800 -240 Descending Southern California TRACON
08:39PM 33.7500 -118.2667 320° Northwest 94 108 1,600 -420 Descending Southern California TRACON
08:40PM 33.7833 -118.3000 320° Northwest 104 120 1,000 -360 Descending Southern California TRACON
08:41PM 33.8000 -118.3167 320° Northwest 98 113 900 -120 Descending Southern California TRACON